Time;durP1;ratioP1;P1;durP2;ratioP2;P2;SDS_P1;SDS_P2;PMS_P1;PMS_P2;Temp;Humidity;BMP_temperature;BMP_pressure;BME280_temperature;BME280_humidity;BME280_pressure;Samples;Min_cycle;Max_cycle;Signal;HPM_P1;HPM_P2
2022/05/15 00:02:24;;;;;;;;;;;12.20;99.90;;;;;;5084307;27;37573;-61
2022/05/15 00:04:51;;;;;;;;;;;12.10;99.90;;;;;;5084628;27;38066;-61
2022/05/15 00:07:20;;;;;;;;;;;12.10;99.90;;;;;;5085247;27;36619;-60
2022/05/15 00:09:47;;;;;;;;;;;12.20;99.90;;;;;;5086896;27;37802;-60
2022/05/15 00:12:16;;;;;;;;;;;12.20;99.90;;;;;;5086382;27;40069;-61
2022/05/15 00:14:43;;;;;;;;;;;12.30;99.90;;;;;;5086124;27;37864;-60
2022/05/15 00:17:10;;;;;;;;;;;12.30;99.90;;;;;;5085458;27;35059;-61
2022/05/15 00:19:37;;;;;;;;;;;12.20;99.90;;;;;;5085731;27;38418;-60
2022/05/15 00:22:07;;;;;;;;;;;12.20;99.90;;;;;;5086122;27;38103;-60
2022/05/15 00:24:35;;;;;;;;;;;12.10;99.90;;;;;;5086847;27;38978;-60
2022/05/15 00:27:02;;;;;;;;;;;12.10;99.90;;;;;;5086517;27;36374;-61
2022/05/15 00:29:29;;;;;;;;;;;12.10;99.90;;;;;;5084805;27;36431;-60
2022/05/15 00:31:58;;;;;;;;;;;12.00;99.90;;;;;;5085161;27;37474;-61
2022/05/15 00:34:25;;;;;;;;;;;12.00;99.90;;;;;;5091018;27;37128;-61
2022/05/15 00:36:52;;;;;;;;;;;12.00;99.90;;;;;;5093027;27;36640;-61
2022/05/15 00:39:19;;;;;;;;;;;12.00;99.90;;;;;;5092833;27;42433;-61
2022/05/15 00:41:48;;;;;;;;;;;12.00;99.90;;;;;;5090456;27;37916;-61
2022/05/15 00:44:15;;;;;;;;;;;12.00;99.90;;;;;;5093545;27;37101;-61
2022/05/15 00:46:42;;;;;;;;;;;12.00;99.90;;;;;;5091981;27;36695;-61
2022/05/15 00:49:11;;;;;;;;;;;12.10;99.90;;;;;;5092025;27;37577;-61
2022/05/15 00:51:40;;;;;;;;;;;12.00;99.90;;;;;;5092394;27;38666;-61
2022/05/15 00:54:09;;;;;;;;;;;12.00;99.90;;;;;;5092063;27;37217;-60
2022/05/15 00:56:38;;;;;;;;;;;12.00;99.90;;;;;;5093821;27;36822;-61
2022/05/15 00:59:10;;;;;;;;;;;11.90;99.90;;;;;;5091608;27;36511;-61
2022/05/15 01:01:37;;;;;;;;;;;11.90;99.90;;;;;;5092384;27;36828;-61
2022/05/15 01:04:04;;;;;;;;;;;11.90;99.90;;;;;;5091508;27;37995;-60
2022/05/15 01:06:31;;;;;;;;;;;11.90;99.90;;;;;;5090035;27;36974;-61
2022/05/15 01:09:01;;;;;;;;;;;11.90;99.90;;;;;;5092386;27;37371;-61
2022/05/15 01:11:28;;;;;;;;;;;11.80;99.90;;;;;;5087777;27;38487;-61
2022/05/15 01:13:55;;;;;;;;;;;11.80;99.90;;;;;;5089629;27;37097;-61
2022/05/15 01:16:25;;;;;;;;;;;11.80;99.90;;;;;;5092497;27;37187;-61
2022/05/15 01:18:55;;;;;;;;;;;11.70;99.90;;;;;;5090734;27;40351;-61
2022/05/15 01:21:25;;;;;;;;;;;11.70;99.90;;;;;;5092522;27;36712;-61
2022/05/15 01:23:52;;;;;;;;;;;11.60;99.90;;;;;;5090452;27;38082;-61
2022/05/15 01:26:19;;;;;;;;;;;11.60;99.90;;;;;;5091703;27;36054;-61
2022/05/15 01:28:46;;;;;;;;;;;11.60;99.90;;;;;;5092373;27;38168;-61
2022/05/15 01:31:14;;;;;;;;;;;11.60;99.90;;;;;;5093519;27;38540;-60
2022/05/15 01:33:41;;;;;;;;;;;11.50;99.90;;;;;;5094824;27;36005;-61
2022/05/15 01:36:08;;;;;;;;;;;11.50;99.90;;;;;;5096161;27;37957;-60
2022/05/15 01:38:37;;;;;;;;;;;11.50;99.90;;;;;;5093637;27;36487;-60
2022/05/15 01:41:06;;;;;;;;;;;11.50;99.90;;;;;;5094549;27;36675;-61
2022/05/15 01:43:33;;;;;;;;;;;11.50;99.90;;;;;;5094726;27;37835;-61
2022/05/15 01:46:00;;;;;;;;;;;11.40;99.90;;;;;;5095347;27;37487;-61
2022/05/15 01:48:27;;;;;;;;;;;11.50;99.90;;;;;;5093464;27;38315;-61
2022/05/15 01:50:54;;;;;;;;;;;11.40;99.90;;;;;;5093488;27;38126;-61
2022/05/15 01:53:21;;;;;;;;;;;11.40;99.90;;;;;;5093484;27;38820;-61
2022/05/15 01:55:50;;;;;;;;;;;11.30;99.90;;;;;;5096031;27;36524;-61
2022/05/15 01:58:17;;;;;;;;;;;11.30;99.90;;;;;;5094335;27;36571;-61
2022/05/15 02:00:44;;;;;;;;;;;11.00;99.90;;;;;;5095186;27;38080;-61
2022/05/15 02:03:11;;;;;;;;;;;11.30;99.90;;;;;;5095574;27;37750;-61
2022/05/15 02:05:38;;;;;;;;;;;11.20;99.90;;;;;;5092637;27;36456;-61
2022/05/15 02:08:05;;;;;;;;;;;11.20;99.90;;;;;;5095867;27;38676;-61
2022/05/15 02:10:32;;;;;;;;;;;11.10;99.90;;;;;;5094573;27;37289;-61
2022/05/15 02:13:01;;;;;;;;;;;11.10;99.90;;;;;;5095077;27;37770;-61
2022/05/15 02:15:28;;;;;;;;;;;11.10;99.90;;;;;;5095732;27;37652;-61
2022/05/15 02:17:56;;;;;;;;;;;11.00;99.90;;;;;;5095677;27;37301;-60
2022/05/15 02:20:24;;;;;;;;;;;10.90;99.90;;;;;;5094109;27;39039;-60
2022/05/15 02:22:51;;;;;;;;;;;10.80;99.90;;;;;;5094098;27;37524;-61
2022/05/15 02:25:18;;;;;;;;;;;10.80;99.90;;;;;;5095066;27;36377;-61
2022/05/15 02:27:46;;;;;;;;;;;10.80;99.90;;;;;;5094453;27;38609;-61
2022/05/15 02:30:16;;;;;;;;;;;10.90;99.90;;;;;;5093678;27;38187;-61
2022/05/15 02:32:43;;;;;;;;;;;10.90;99.90;;;;;;5092751;27;37181;-60
2022/05/15 02:35:11;;;;;;;;;;;10.80;99.90;;;;;;5091316;27;36001;-61
2022/05/15 02:37:38;;;;;;;;;;;10.90;99.90;;;;;;5094795;27;39792;-60
2022/05/15 02:40:06;;;;;;;;;;;10.80;99.90;;;;;;5095064;27;39351;-60
2022/05/15 02:42:33;;;;;;;;;;;10.90;99.90;;;;;;5094444;27;38000;-60
2022/05/15 02:45:00;;;;;;;;;;;10.80;99.90;;;;;;5095378;27;37298;-60
2022/05/15 02:47:29;;;;;;;;;;;10.90;99.90;;;;;;5093921;27;37673;-61
2022/05/15 02:52:40;;;;;;;;;;;10.80;99.90;;;;;;5095195;27;38452;-60
2022/05/15 02:55:07;;;;;;;;;;;10.70;99.90;;;;;;5095435;27;36106;-60
2022/05/15 02:57:35;;;;;;;;;;;10.70;99.90;;;;;;5094361;27;38274;-60
2022/05/15 03:00:02;;;;;;;;;;;10.70;99.90;;;;;;5094230;27;38215;-60
2022/05/15 03:02:30;;;;;;;;;;;10.70;99.90;;;;;;5094214;27;37207;-60
2022/05/15 03:04:57;;;;;;;;;;;10.60;99.90;;;;;;5094376;27;36519;-61
2022/05/15 03:07:24;;;;;;;;;;;10.60;99.90;;;;;;5093159;27;37391;-61
2022/05/15 03:09:51;;;;;;;;;;;10.50;99.90;;;;;;5094113;27;38178;-61
2022/05/15 03:12:18;;;;;;;;;;;10.50;99.90;;;;;;5093532;27;37087;-61
2022/05/15 03:14:46;;;;;;;;;;;10.50;99.90;;;;;;5093809;27;35982;-61
2022/05/15 03:17:13;;;;;;;;;;;10.50;99.90;;;;;;5093016;27;35553;-61
2022/05/15 03:19:43;;;;;;;;;;;10.40;99.90;;;;;;5092398;27;39170;-61
2022/05/15 03:22:10;;;;;;;;;;;10.40;99.90;;;;;;5093467;27;36290;-61
2022/05/15 03:24:37;;;;;;;;;;;10.40;99.90;;;;;;5091449;27;36959;-61
2022/05/15 03:27:05;;;;;;;;;;;10.40;99.90;;;;;;5092594;27;36423;-61
2022/05/15 03:29:32;;;;;;;;;;;10.40;99.90;;;;;;5093661;27;37814;-61
2022/05/15 03:31:59;;;;;;;;;;;10.30;99.90;;;;;;5094018;27;37114;-61
2022/05/15 03:34:26;;;;;;;;;;;10.40;99.90;;;;;;5093833;27;35127;-61
2022/05/15 03:36:54;;;;;;;;;;;10.40;99.90;;;;;;5093155;27;38548;-61
2022/05/15 03:39:22;;;;;;;;;;;10.40;99.90;;;;;;5093776;27;38230;-61
2022/05/15 03:41:49;;;;;;;;;;;10.40;99.90;;;;;;5094794;27;36863;-61
2022/05/15 03:44:17;;;;;;;;;;;10.40;99.90;;;;;;5093273;27;36013;-61
2022/05/15 03:46:44;;;;;;;;;;;10.40;99.90;;;;;;5093877;27;37565;-61
2022/05/15 03:49:13;;;;;;;;;;;10.30;99.90;;;;;;5092259;27;37609;-61
2022/05/15 03:51:41;;;;;;;;;;;10.30;99.90;;;;;;5091285;27;37245;-61
2022/05/15 03:54:10;;;;;;;;;;;10.30;99.90;;;;;;5092622;27;35179;-61
2022/05/15 03:56:52;;;;;;;;;;;10.20;99.90;;;;;;5093358;27;39198;-61
2022/05/15 03:59:20;;;;;;;;;;;10.20;99.90;;;;;;5093107;27;38917;-61
2022/05/15 04:01:48;;;;;;;;;;;10.20;99.90;;;;;;5092689;27;37412;-61
2022/05/15 04:04:15;;;;;;;;;;;10.20;99.90;;;;;;5092369;27;38921;-61
2022/05/15 04:06:42;;;;;;;;;;;10.20;99.90;;;;;;5094934;27;38326;-61
2022/05/15 04:09:10;;;;;;;;;;;10.20;99.90;;;;;;5093446;27;38403;-61
2022/05/15 04:11:37;;;;;;;;;;;10.20;99.90;;;;;;5093127;27;37376;-61
2022/05/15 04:14:04;;;;;;;;;;;10.20;99.90;;;;;;5093257;27;36298;-61
2022/05/15 04:16:31;;;;;;;;;;;10.30;99.90;;;;;;5093695;27;37086;-61
2022/05/15 04:18:58;;;;;;;;;;;10.30;99.90;;;;;;5091229;27;36853;-61
2022/05/15 04:21:26;;;;;;;;;;;10.30;99.90;;;;;;5093125;27;37167;-63
2022/05/15 04:23:53;;;;;;;;;;;10.40;99.90;;;;;;5092336;27;37403;-61
2022/05/15 04:26:21;;;;;;;;;;;10.50;99.90;;;;;;5093257;27;37871;-61
2022/05/15 04:28:48;;;;;;;;;;;10.60;99.90;;;;;;5092888;27;38081;-61
2022/05/15 04:31:15;;;;;;;;;;;10.70;99.90;;;;;;5093047;27;37830;-61
2022/05/15 04:33:42;;;;;;;;;;;10.80;99.90;;;;;;5091765;27;35961;-61
2022/05/15 04:36:09;;;;;;;;;;;10.90;99.90;;;;;;5091975;27;37691;-61
2022/05/15 04:38:37;;;;;;;;;;;11.00;99.90;;;;;;5091969;27;38944;-61
2022/05/15 04:41:04;;;;;;;;;;;11.10;99.90;;;;;;5088961;27;37335;-61
2022/05/15 04:43:32;;;;;;;;;;;11.20;99.90;;;;;;5091770;27;36027;-61
2022/05/15 04:46:01;;;;;;;;;;;11.40;99.90;;;;;;5089746;27;38220;-61
2022/05/15 04:48:28;;;;;;;;;;;11.50;99.90;;;;;;5091241;27;39285;-61
2022/05/15 04:50:55;;;;;;;;;;;11.60;99.90;;;;;;5092030;27;37875;-61
2022/05/15 04:53:23;;;;;;;;;;;11.80;99.90;;;;;;5091813;27;35366;-61
2022/05/15 04:55:50;;;;;;;;;;;11.90;99.90;;;;;;5092357;27;38376;-61
2022/05/15 04:58:17;;;;;;;;;;;12.10;99.90;;;;;;5091512;27;38708;-61
2022/05/15 05:00:45;;;;;;;;;;;12.30;99.90;;;;;;5093313;27;37353;-61
2022/05/15 05:03:13;;;;;;;;;;;12.50;99.90;;;;;;5093082;27;39373;-61
2022/05/15 05:05:40;;;;;;;;;;;12.60;99.90;;;;;;5095474;27;38323;-61
2022/05/15 05:08:08;;;;;;;;;;;12.80;99.90;;;;;;5095674;27;40787;-61
2022/05/15 05:10:35;;;;;;;;;;;13.10;99.90;;;;;;5095334;27;36836;-61
2022/05/15 05:13:03;;;;;;;;;;;13.10;99.90;;;;;;5097513;27;37040;-61
2022/05/15 05:15:30;;;;;;;;;;;13.30;99.90;;;;;;5096274;27;36413;-61
2022/05/15 05:17:58;;;;;;;;;;;13.40;99.90;;;;;;5095572;27;39238;-61
2022/05/15 05:20:26;;;;;;;;;;;13.60;99.90;;;;;;5096086;27;36939;-61
2022/05/15 05:22:53;;;;;;;;;;;13.70;99.90;;;;;;5094706;27;37083;-61
2022/05/15 05:25:20;;;;;;;;;;;13.90;99.90;;;;;;5095872;27;39319;-61
2022/05/15 05:27:47;;;;;;;;;;;14.00;99.90;;;;;;5096239;27;38173;-61
2022/05/15 05:30:15;;;;;;;;;;;14.20;99.90;;;;;;5093972;27;38627;-61
2022/05/15 05:32:43;;;;;;;;;;;14.40;99.90;;;;;;5096654;27;35764;-61
2022/05/15 05:35:12;;;;;;;;;;;14.60;99.20;;;;;;5094247;27;38577;-61
2022/05/15 05:37:39;;;;;;;;;;;14.80;99.00;;;;;;5095683;27;41053;-61
2022/05/15 05:40:07;;;;;;;;;;;14.80;99.10;;;;;;5093495;27;39534;-61
2022/05/15 05:42:34;;;;;;;;;;;14.90;99.10;;;;;;5094309;27;37796;-61
2022/05/15 05:45:02;;;;;;;;;;;15.00;99.10;;;;;;5097331;27;37971;-61
2022/05/15 05:47:30;;;;;;;;;;;15.20;98.90;;;;;;5095177;27;37825;-61
2022/05/15 05:49:58;;;;;;;;;;;15.30;98.80;;;;;;5093401;27;37359;-61
2022/05/15 05:52:26;;;;;;;;;;;15.50;98.40;;;;;;5096295;27;34286;-62
2022/05/15 05:54:54;;;;;;;;;;;15.60;98.30;;;;;;5095145;27;39274;-61
2022/05/15 05:57:21;;;;;;;;;;;15.70;96.90;;;;;;5094315;27;38242;-61
2022/05/15 05:59:48;;;;;;;;;;;15.80;96.50;;;;;;5095171;27;38740;-61
2022/05/15 06:02:15;;;;;;;;;;;15.80;96.20;;;;;;5094145;27;35125;-61
2022/05/15 06:04:42;;;;;;;;;;;15.90;96.00;;;;;;5094821;27;37734;-61
2022/05/15 06:07:11;;;;;;;;;;;16.00;95.90;;;;;;5094275;27;37241;-61
2022/05/15 06:09:39;;;;;;;;;;;16.00;95.40;;;;;;5093342;27;38433;-61
2022/05/15 06:12:07;;;;;;;;;;;16.10;95.10;;;;;;5092961;27;34964;-61
2022/05/15 06:14:34;;;;;;;;;;;16.10;94.50;;;;;;5094503;27;37714;-62
2022/05/15 06:17:01;;;;;;;;;;;16.10;95.30;;;;;;5094549;27;37154;-61
2022/05/15 06:19:28;;;;;;;;;;;16.20;96.00;;;;;;5094643;27;37926;-61
2022/05/15 06:21:56;;;;;;;;;;;16.40;95.50;;;;;;5095329;27;36849;-61
2022/05/15 06:24:23;;;;;;;;;;;16.50;94.00;;;;;;5091029;27;36421;-60
2022/05/15 06:26:51;;;;;;;;;;;16.60;93.80;;;;;;5090748;27;38577;-61
2022/05/15 06:29:18;;;;;;;;;;;16.60;93.90;;;;;;5093384;27;37236;-61
2022/05/15 06:31:46;;;;;;;;;;;16.70;93.20;;;;;;5093784;27;36632;-61
2022/05/15 06:34:14;;;;;;;;;;;16.70;93.30;;;;;;5092625;27;36436;-60
2022/05/15 06:36:41;;;;;;;;;;;16.80;93.70;;;;;;5089544;27;38676;-61
2022/05/15 06:39:08;;;;;;;;;;;16.90;94.00;;;;;;5090053;27;37171;-61
2022/05/15 06:41:35;;;;;;;;;;;17.00;93.50;;;;;;5094171;27;36680;-61
2022/05/15 06:44:04;;;;;;;;;;;17.00;92.20;;;;;;5089237;27;39298;-61
2022/05/15 06:46:31;;;;;;;;;;;17.10;92.70;;;;;;5093454;27;39381;-61
2022/05/15 06:48:58;;;;;;;;;;;17.10;93.40;;;;;;5092123;27;38268;-61
2022/05/15 06:51:26;;;;;;;;;;;17.20;92.90;;;;;;5092603;27;36306;-61
2022/05/15 06:53:53;;;;;;;;;;;17.30;92.30;;;;;;5091556;27;37967;-61
2022/05/15 06:59:06;;;;;;;;;;;17.40;92.20;;;;;;5078335;27;37462;-61
2022/05/15 07:01:33;;;;;;;;;;;17.40;91.60;;;;;;5080255;27;35214;-61
2022/05/15 07:04:00;;;;;;;;;;;17.50;91.10;;;;;;5080683;27;37761;-61
2022/05/15 07:06:27;;;;;;;;;;;17.50;90.80;;;;;;5085831;27;39124;-61
2022/05/15 07:08:55;;;;;;;;;;;17.50;89.70;;;;;;5086821;27;37123;-61
2022/05/15 07:11:22;;;;;;;;;;;17.60;89.40;;;;;;5082775;27;36979;-61
2022/05/15 07:13:49;;;;;;;;;;;17.60;88.00;;;;;;5082435;27;36896;-62
2022/05/15 07:16:17;;;;;;;;;;;17.60;89.10;;;;;;5085756;27;38107;-61
2022/05/15 07:18:44;;;;;;;;;;;17.70;89.10;;;;;;5084202;27;38005;-61
2022/05/15 07:21:11;;;;;;;;;;;17.70;90.50;;;;;;5085465;27;35110;-61
2022/05/15 07:23:39;;;;;;;;;;;17.80;89.90;;;;;;5085802;27;40289;-61
2022/05/15 07:26:06;;;;;;;;;;;17.90;89.20;;;;;;5086469;27;37608;-61
2022/05/15 07:28:33;;;;;;;;;;;18.00;90.10;;;;;;5084946;27;38415;-61
2022/05/15 07:31:00;;;;;;;;;;;18.10;88.00;;;;;;5083294;27;37741;-61
2022/05/15 07:33:29;;;;;;;;;;;18.20;86.90;;;;;;5083668;27;37966;-61
2022/05/15 07:35:56;;;;;;;;;;;18.20;85.30;;;;;;5089411;27;40801;-61
2022/05/15 07:38:23;;;;;;;;;;;18.30;84.80;;;;;;5091668;27;37990;-61
2022/05/15 07:40:51;;;;;;;;;;;18.30;84.60;;;;;;5088709;27;37551;-61
2022/05/15 07:43:19;;;;;;;;;;;18.30;85.20;;;;;;5087067;27;37514;-61
2022/05/15 07:45:46;;;;;;;;;;;18.40;84.00;;;;;;5090176;27;38088;-61
2022/05/15 07:48:14;;;;;;;;;;;18.50;86.30;;;;;;5090951;27;35980;-61
2022/05/15 07:50:42;;;;;;;;;;;18.60;86.40;;;;;;5093187;27;35956;-61
2022/05/15 07:53:09;;;;;;;;;;;18.60;86.00;;;;;;5094087;27;37034;-61
2022/05/15 07:55:36;;;;;;;;;;;18.70;84.60;;;;;;5092639;27;38740;-61
2022/05/15 07:58:04;;;;;;;;;;;18.70;83.90;;;;;;5093677;27;36914;-61
2022/05/15 08:00:31;;;;;;;;;;;18.80;85.60;;;;;;5093379;27;37158;-61
2022/05/15 08:03:02;;;;;;;;;;;18.90;80.60;;;;;;5092897;27;38334;-61
2022/05/15 08:08:16;;;;;;;;;;;19.00;82.00;;;;;;5090576;27;38520;-61
2022/05/15 08:10:44;;;;;;;;;;;19.00;80.90;;;;;;5093362;27;36508;-62
2022/05/15 08:13:12;;;;;;;;;;;19.10;80.40;;;;;;5093368;27;37805;-61
2022/05/15 08:15:40;;;;;;;;;;;19.20;78.40;;;;;;5092061;27;39250;-61
2022/05/15 08:23:37;;;;;;;;;;;19.30;80.30;;;;;;5092617;27;38433;-61
2022/05/15 08:26:05;;;;;;;;;;;19.50;77.20;;;;;;5091422;27;38633;-61
2022/05/15 08:28:33;;;;;;;;;;;19.50;74.60;;;;;;5092132;27;37483;-61
2022/05/15 08:31:00;;;;;;;;;;;19.60;74.50;;;;;;5092866;27;35949;-61
2022/05/15 08:33:27;;;;;;;;;;;19.60;74.30;;;;;;5091056;27;38707;-62
2022/05/15 08:35:54;;;;;;;;;;;19.70;75.40;;;;;;5092919;27;36711;-61
2022/05/15 08:38:21;;;;;;;;;;;19.80;76.00;;;;;;5093947;27;37113;-62
2022/05/15 08:40:53;;;;;;;;;;;19.90;74.40;;;;;;5091201;27;37272;-62
2022/05/15 08:43:21;;;;;;;;;;;19.90;74.80;;;;;;5095766;27;38641;-61
2022/05/15 08:45:54;;;;;;;;;;;20.00;73.30;;;;;;5095994;27;38903;-62
2022/05/15 08:48:21;;;;;;;;;;;20.10;74.00;;;;;;5094082;27;37742;-62
2022/05/15 08:50:49;;;;;;;;;;;20.10;72.00;;;;;;5095378;27;37327;-61
2022/05/15 08:53:21;;;;;;;;;;;20.20;72.00;;;;;;5096448;27;36549;-61
2022/05/15 08:55:51;;;;;;;;;;;20.30;72.10;;;;;;5096026;27;39513;-62
2022/05/15 08:58:22;;;;;;;;;;;20.40;67.30;;;;;;5097184;27;38851;-62
2022/05/15 09:00:50;;;;;;;;;;;20.50;68.90;;;;;;5095634;27;35986;-61
2022/05/15 09:03:19;;;;;;;;;;;20.50;68.60;;;;;;5096535;27;38750;-62
2022/05/15 09:05:49;;;;;;;;;;;20.60;68.30;;;;;;5095790;27;38857;-61
2022/05/15 09:08:23;;;;;;;;;;;20.60;68.40;;;;;;5095248;27;38552;-62
2022/05/15 09:10:57;;;;;;;;;;;20.60;68.20;;;;;;5094664;27;37028;-60
2022/05/15 09:13:31;;;;;;;;;;;20.70;64.30;;;;;;5096178;27;38528;-61
2022/05/15 09:16:00;;;;;;;;;;;20.80;64.60;;;;;;5095977;27;38273;-61
2022/05/15 09:18:28;;;;;;;;;;;20.80;67.20;;;;;;5093684;27;39705;-61
2022/05/15 09:21:01;;;;;;;;;;;20.80;66.00;;;;;;5095180;27;37031;-62
2022/05/15 09:23:32;;;;;;;;;;;20.90;64.30;;;;;;5095539;27;36403;-61
2022/05/15 09:26:01;;;;;;;;;;;20.90;64.10;;;;;;5094453;27;39968;-61
2022/05/15 09:28:29;;;;;;;;;;;21.00;65.00;;;;;;5095755;27;39072;-62
2022/05/15 09:30:57;;;;;;;;;;;21.10;65.00;;;;;;5096380;27;36731;-62
2022/05/15 09:33:27;;;;;;;;;;;21.30;65.50;;;;;;5095086;27;39683;-62
2022/05/15 09:36:09;;;;;;;;;;;21.40;64.30;;;;;;5094545;27;36839;-59
2022/05/15 09:38:36;;;;;;;;;;;21.40;58.50;;;;;;5096863;27;37474;-60
2022/05/15 09:43:57;;;;;;;;;;;21.60;61.90;;;;;;5093438;27;39297;-60
2022/05/15 09:46:25;;;;;;;;;;;21.70;65.30;;;;;;5093749;27;38861;-59
2022/05/15 09:48:54;;;;;;;;;;;21.80;64.80;;;;;;5091143;27;38192;-60
2022/05/15 09:51:29;;;;;;;;;;;22.00;64.50;;;;;;5094613;27;36446;-59
2022/05/15 09:53:57;;;;;;;;;;;22.10;67.40;;;;;;5095466;27;36604;-59
2022/05/15 09:56:29;;;;;;;;;;;22.10;60.80;;;;;;5096368;27;37510;-59
2022/05/15 09:58:58;;;;;;;;;;;22.10;60.00;;;;;;5096017;27;37287;-64
2022/05/15 10:01:27;;;;;;;;;;;22.10;57.80;;;;;;5095679;27;36254;-63
2022/05/15 10:03:56;;;;;;;;;;;22.00;58.30;;;;;;5093788;27;38032;-63
2022/05/15 10:06:24;;;;;;;;;;;22.00;60.80;;;;;;5095317;27;38988;-64
2022/05/15 10:09:09;;;;;;;;;;;22.00;60.10;;;;;;5095409;27;37540;-64
2022/05/15 10:11:39;;;;;;;;;;;22.00;59.60;;;;;;5094589;27;36257;-64
2022/05/15 10:14:07;;;;;;;;;;;22.00;57.90;;;;;;5095722;27;38305;-64
2022/05/15 10:16:35;;;;;;;;;;;22.00;58.90;;;;;;5095202;27;37943;-64
2022/05/15 10:19:04;;;;;;;;;;;22.00;57.70;;;;;;5089196;27;35871;-63
2022/05/15 10:21:36;;;;;;;;;;;21.90;57.10;;;;;;5093480;27;36691;-63
2022/05/15 10:24:05;;;;;;;;;;;21.90;57.10;;;;;;5093555;27;37809;-63
2022/05/15 10:26:36;;;;;;;;;;;22.00;57.00;;;;;;5093504;27;39724;-63
2022/05/15 10:29:12;;;;;;;;;;;22.00;56.20;;;;;;5096468;27;37879;-62
2022/05/15 10:31:41;;;;;;;;;;;22.00;57.60;;;;;;5094125;27;37411;-63
2022/05/15 10:34:11;;;;;;;;;;;22.10;58.60;;;;;;5093927;27;36501;-64
2022/05/15 10:36:50;;;;;;;;;;;22.10;58.20;;;;;;5093317;27;38729;-63
2022/05/15 10:39:25;;;;;;;;;;;22.10;56.20;;;;;;5094387;27;37033;-63
2022/05/15 10:41:56;;;;;;;;;;;22.10;59.00;;;;;;5093787;27;38325;-63
2022/05/15 10:44:30;;;;;;;;;;;22.20;59.20;;;;;;5094476;27;37653;-63
2022/05/15 10:47:00;;;;;;;;;;;22.20;55.20;;;;;;5094507;27;36568;-64
2022/05/15 10:49:33;;;;;;;;;;;22.10;55.10;;;;;;5093595;27;37254;-64
2022/05/15 10:52:03;;;;;;;;;;;22.00;55.00;;;;;;5094881;27;35135;-64
2022/05/15 10:57:24;;;;;;;;;;;22.00;54.30;;;;;;5094964;27;38790;-63
2022/05/15 10:59:59;;;;;;;;;;;22.00;55.50;;;;;;5094599;27;38729;-63
2022/05/15 11:02:36;;;;;;;;;;;22.00;56.90;;;;;;5089431;27;37878;-64
2022/05/15 11:05:08;;;;;;;;;;;22.00;56.20;;;;;;5093382;27;39718;-64
2022/05/15 11:07:40;;;;;;;;;;;22.00;57.20;;;;;;5090988;27;37975;-62
2022/05/15 11:10:09;;;;;;;;;;;22.00;56.20;;;;;;5092427;27;37980;-65
2022/05/15 11:12:41;;;;;;;;;;;22.00;57.70;;;;;;5093479;27;36169;-65
2022/05/15 11:15:18;;;;;;;;;;;22.00;55.00;;;;;;5094163;27;35665;-65
2022/05/15 11:17:50;;;;;;;;;;;22.00;58.00;;;;;;5091297;27;39026;-65
2022/05/15 11:20:18;;;;;;;;;;;22.10;57.90;;;;;;5091487;27;37335;-65
2022/05/15 11:22:47;;;;;;;;;;;22.10;58.70;;;;;;5093307;27;37635;-65
2022/05/15 11:25:27;;;;;;;;;;;22.20;59.80;;;;;;5090696;27;37863;-65
2022/05/15 11:27:55;;;;;;;;;;;22.30;59.60;;;;;;5092049;27;38146;-66
2022/05/15 11:30:26;;;;;;;;;;;22.40;58.00;;;;;;5090840;27;37319;-65
2022/05/15 11:33:04;;;;;;;;;;;22.30;56.70;;;;;;5087262;27;36621;-65
2022/05/15 11:35:33;;;;;;;;;;;22.20;56.50;;;;;;5091048;27;37431;-65
2022/05/15 11:38:08;;;;;;;;;;;22.20;57.50;;;;;;5091166;27;37755;-65
2022/05/15 11:40:37;;;;;;;;;;;22.20;56.70;;;;;;5092080;27;37717;-65
2022/05/15 11:43:23;;;;;;;;;;;22.10;51.60;;;;;;5090759;27;36204;-65
2022/05/15 11:45:53;;;;;;;;;;;22.10;54.50;;;;;;5092730;27;38423;-65
2022/05/15 11:48:21;;;;;;;;;;;22.00;55.40;;;;;;5087970;27;36793;-65
2022/05/15 11:50:54;;;;;;;;;;;22.00;55.90;;;;;;5090377;27;35496;-65
2022/05/15 11:53:26;;;;;;;;;;;22.00;52.50;;;;;;5088901;27;36176;-65
2022/05/15 11:55:53;;;;;;;;;;;22.00;54.90;;;;;;5089969;27;37524;-64
2022/05/15 11:58:26;;;;;;;;;;;21.90;51.40;;;;;;5090682;27;38310;-64
2022/05/15 12:01:05;;;;;;;;;;;21.80;54.40;;;;;;5090720;27;37853;-62
2022/05/15 12:03:43;;;;;;;;;;;21.60;55.50;;;;;;5087377;27;35114;-62
2022/05/15 12:06:11;;;;;;;;;;;21.50;56.70;;;;;;5090041;27;37800;-62
2022/05/15 12:08:39;;;;;;;;;;;21.50;56.10;;;;;;5091557;27;38932;-62
2022/05/15 12:11:14;;;;;;;;;;;21.50;54.10;;;;;;5089341;27;36037;-62
2022/05/15 12:13:42;;;;;;;;;;;21.60;58.50;;;;;;5091591;27;37906;-63
2022/05/15 12:16:21;;;;;;;;;;;21.70;57.90;;;;;;5088850;27;36401;-62
2022/05/15 12:18:52;;;;;;;;;;;21.70;55.70;;;;;;5088575;27;38590;-62
2022/05/15 12:21:23;;;;;;;;;;;21.70;53.90;;;;;;5090131;27;39213;-63
2022/05/15 12:26:37;;;;;;;;;;;21.70;57.60;;;;;;5088851;27;37423;-62
2022/05/15 12:29:20;;;;;;;;;;;21.70;58.40;;;;;;5092124;27;37363;-62
2022/05/15 12:31:48;;;;;;;;;;;21.70;55.60;;;;;;5092013;27;38182;-62
2022/05/15 12:34:17;;;;;;;;;;;21.70;55.50;;;;;;5086658;27;37655;-62
2022/05/15 12:36:46;;;;;;;;;;;21.70;54.90;;;;;;5087956;27;38893;-62
2022/05/15 12:39:21;;;;;;;;;;;21.70;54.30;;;;;;5090183;27;38029;-62
2022/05/15 12:41:48;;;;;;;;;;;21.70;54.20;;;;;;5090316;27;37105;-62
2022/05/15 12:44:27;;;;;;;;;;;21.60;54.00;;;;;;5089753;27;37199;-62
2022/05/15 12:47:00;;;;;;;;;;;21.60;56.20;;;;;;5089685;27;36557;-62
2022/05/15 12:49:29;;;;;;;;;;;21.60;55.40;;;;;;5087304;27;38403;-62
2022/05/15 12:52:08;;;;;;;;;;;21.50;55.60;;;;;;5090762;27;37017;-62
2022/05/15 12:54:35;;;;;;;;;;;21.40;55.40;;;;;;5090339;27;36263;-62
2022/05/15 12:57:03;;;;;;;;;;;21.40;56.30;;;;;;5090252;27;38051;-62
2022/05/15 12:59:30;;;;;;;;;;;21.40;54.70;;;;;;5090702;27;38057;-62
2022/05/15 13:02:12;;;;;;;;;;;21.30;54.50;;;;;;5090154;27;37009;-63
2022/05/15 13:04:44;;;;;;;;;;;21.30;53.80;;;;;;5089140;27;36532;-63
2022/05/15 13:07:11;;;;;;;;;;;21.30;57.30;;;;;;5089107;27;37598;-62
2022/05/15 13:09:39;;;;;;;;;;;21.30;60.00;;;;;;5091045;27;37704;-62
2022/05/15 13:12:08;;;;;;;;;;;21.20;56.90;;;;;;5090363;27;36938;-62
2022/05/15 13:14:35;;;;;;;;;;;21.20;55.50;;;;;;5090574;27;37007;-62
2022/05/15 13:17:05;;;;;;;;;;;21.20;55.30;;;;;;5085005;27;39046;-62
2022/05/15 13:19:35;;;;;;;;;;;21.10;57.80;;;;;;5084992;27;37149;-62
2022/05/15 13:22:03;;;;;;;;;;;21.10;57.90;;;;;;5086231;27;38815;-62
2022/05/15 13:24:31;;;;;;;;;;;21.00;57.30;;;;;;5090557;27;35971;-62
2022/05/15 13:26:59;;;;;;;;;;;21.00;59.20;;;;;;5091005;27;37653;-62
2022/05/15 13:29:28;;;;;;;;;;;21.00;57.10;;;;;;5093940;27;38349;-62
2022/05/15 13:31:57;;;;;;;;;;;20.90;59.90;;;;;;5092331;27;36150;-62
2022/05/15 13:34:27;;;;;;;;;;;20.90;60.80;;;;;;5092337;27;37952;-62
2022/05/15 13:36:55;;;;;;;;;;;20.90;60.70;;;;;;5093588;27;38981;-62
2022/05/15 13:44:54;;;;;;;;;;;20.80;59.90;;;;;;5093301;27;38039;-62
2022/05/15 13:47:22;;;;;;;;;;;20.70;60.30;;;;;;5094190;27;37775;-63
2022/05/15 13:49:52;;;;;;;;;;;20.70;59.50;;;;;;5091973;27;37949;-62
2022/05/15 13:52:27;;;;;;;;;;;20.70;58.40;;;;;;5092447;27;36310;-62
2022/05/15 13:54:54;;;;;;;;;;;20.60;62.30;;;;;;5093391;27;35179;-62
2022/05/15 13:57:22;;;;;;;;;;;20.60;62.70;;;;;;5092630;27;40408;-62
2022/05/15 14:00:06;;;;;;;;;;;20.60;59.10;;;;;;5088589;27;38011;-62
2022/05/15 14:02:49;;;;;;;;;;;20.60;60.90;;;;;;5093751;27;37495;-62
2022/05/15 14:05:18;;;;;;;;;;;20.60;61.80;;;;;;5091954;27;36348;-62
2022/05/15 14:07:45;;;;;;;;;;;20.50;63.90;;;;;;5093921;27;38602;-62
2022/05/15 14:10:18;;;;;;;;;;;20.50;59.20;;;;;;5092460;27;38612;-62
2022/05/15 14:12:48;;;;;;;;;;;20.50;60.30;;;;;;5092657;27;37534;-61
2022/05/15 14:15:29;;;;;;;;;;;20.50;61.30;;;;;;5093138;27;37423;-62
2022/05/15 14:17:58;;;;;;;;;;;20.40;65.30;;;;;;5093016;27;38802;-62
2022/05/15 14:20:29;;;;;;;;;;;20.40;67.70;;;;;;5089000;27;38860;-62
2022/05/15 14:22:56;;;;;;;;;;;20.40;66.90;;;;;;5092240;27;37130;-61
2022/05/15 14:25:23;;;;;;;;;;;20.40;71.40;;;;;;5093227;27;36453;-61
2022/05/15 14:27:50;;;;;;;;;;;20.40;72.50;;;;;;5091746;27;39667;-61
2022/05/15 14:30:17;;;;;;;;;;;20.40;74.80;;;;;;5093732;27;36629;-61
2022/05/15 14:32:50;;;;;;;;;;;20.40;74.30;;;;;;5091694;27;37134;-61
2022/05/15 14:35:19;;;;;;;;;;;20.30;70.90;;;;;;5091491;27;36378;-61
2022/05/15 14:37:48;;;;;;;;;;;20.30;75.80;;;;;;5091948;27;38749;-61
2022/05/15 14:40:15;;;;;;;;;;;20.30;75.80;;;;;;5090966;27;38861;-61
2022/05/15 14:42:42;;;;;;;;;;;20.30;77.90;;;;;;5090852;27;37658;-61
2022/05/15 14:45:17;;;;;;;;;;;20.30;78.60;;;;;;5092291;27;37558;-61
2022/05/15 14:47:46;;;;;;;;;;;20.20;77.70;;;;;;5090883;27;40486;-62
2022/05/15 14:50:13;;;;;;;;;;;20.20;81.70;;;;;;5090945;27;39727;-61
2022/05/15 14:52:40;;;;;;;;;;;20.20;80.50;;;;;;5088559;27;37014;-61
2022/05/15 14:55:09;;;;;;;;;;;20.20;82.00;;;;;;5092109;27;36837;-61